LAKE NATOMA (NIMBUS DAM) (NAT)

Elevation: 132' · AMERICAN R basin · Operator: US Bureau of Reclamation

Provisional data, subject to change.
Query executed Saturday at 12:57:50   clock

Select a sensor type for a plot of data.
Note: Reservoir Flows are daily averages.

Earlier

Date RES ELE    STORAGE    RES CHG    OUTFLOW    INFLOW    SPILL    DIS PWR   
 FEET   AF   AF   CFS   CFS   CFS   CFS  
03/20/2014 123.78 8158 -70 573 540 0 483
03/21/2014 122.80 7701 -457 575 347 0 485
03/22/2014 122.51 7571 -130 574 510 0 484
03/23/2014 122.33 7490 -81 573 534 0 483
03/24/2014 122.02 7350 -140 578 509 0 488
03/25/2014 121.52 7139 -211 571 467 0 481
03/26/2014 121.23 7018 -121 559 498 0 469
03/27/2014 121.32 7055 37 542 561 0 468
03/28/2014 121.00 6921 -134 528 460 0 468
03/29/2014 122.78 7692 771 529 919 0 469
03/30/2014 122.12 7395 -297 528 380 0 468
03/31/2014 121.90 7299 -96 538 491 0 468
04/01/2014 122.20 7431 132 558 625 0 468
04/02/2014 122.36 7503 72 499 535 0 409
04/03/2014 123.32 7941 438 560 781 0 470
04/04/2014 124.27 8396 455 559 789 0 469
04/05/2014 122.50 7566 -830 559 141 0 469
04/06/2014 123.61 8078 512 558 817 0 468
04/07/2014 124.23 8376 298 559 711 0 469
04/08/2014 122.98 7782 -594 533 236 0 468
04/09/2014 122.89 7742 -40 529 511 0 469
04/10/2014 122.60 7611 -131 566 502 0 501
04/11/2014 122.38 7512 -99 590 542 0 500
04/12/2014 122.31 7481 -31 576 562 0 486
04/13/2014 122.25 7454 -27 569 557 0 479
04/14/2014 121.73 7228 -226 570 458 0 480
04/15/2014 122.24 7449 221 560 673 0 470
04/16/2014 122.28 7467 18 555 566 0 465
04/17/2014 122.19 7427 -40 573 555 0 483
04/18/2014 122.61 7616 189 580 677 0 490
04/19/2014 -- -- -- -- -- -- --

Later | Latest

Warning! This data is preliminary and subject to revision.

Download Data Now Download Data Now | Show NAT Map | Plot NAT Data | 1 Month NAT Data | Real-Time NAT Data | NAT Info